createdAt,value
2017-12-28T00:00:43.737Z,9.44
2017-12-28T00:02:44.691Z,9.43
2017-12-28T00:03:45.208Z,9.41
2017-12-28T00:04:45.631Z,9.39
2017-12-28T00:06:46.570Z,9.34
2017-12-28T00:07:47.026Z,9.31
2017-12-28T00:08:47.509Z,9.28
2017-12-28T00:09:47.977Z,9.25
2017-12-28T00:10:48.446Z,9.23
2017-12-28T00:11:48.902Z,9.21
2017-12-28T00:13:00.705Z,9.22
2017-12-28T00:13:49.857Z,9.21
2017-12-28T00:14:50.323Z,9.20
2017-12-28T00:15:50.794Z,9.20
2017-12-28T00:16:51.263Z,9.19
2017-12-28T00:18:52.188Z,9.16
2017-12-28T00:20:53.140Z,9.15
2017-12-28T00:22:54.129Z,9.10
2017-12-28T00:23:54.548Z,9.11
2017-12-28T00:24:55.019Z,9.09
2017-12-28T00:25:55.489Z,9.08
2017-12-28T00:26:55.955Z,9.07
2017-12-28T00:27:56.426Z,9.05
2017-12-28T00:29:57.351Z,9.03
2017-12-28T00:30:57.832Z,9.00
2017-12-28T00:31:58.301Z,9.01
2017-12-28T00:32:58.769Z,9.00
2017-12-28T00:33:59.240Z,9.00
2017-12-28T00:34:59.712Z,8.97
2017-12-28T00:36:00.178Z,8.95
2017-12-28T00:37:00.635Z,8.94
2017-12-28T00:38:01.116Z,8.92
2017-12-28T00:39:01.584Z,8.90
2017-12-28T00:40:02.056Z,8.89
2017-12-28T00:41:02.509Z,8.89
2017-12-28T00:42:02.991Z,8.88
2017-12-28T00:43:03.460Z,8.86
2017-12-28T00:44:03.929Z,8.85
2017-12-28T00:45:04.399Z,8.84
2017-12-28T00:46:04.867Z,8.83
2017-12-28T00:47:05.337Z,8.83
2017-12-28T00:48:05.792Z,8.83
2017-12-28T00:49:06.274Z,8.81
2017-12-28T00:50:06.740Z,8.82
2017-12-28T00:51:07.212Z,8.81
2017-12-28T00:52:07.682Z,8.80
2017-12-28T00:53:19.724Z,8.78
2017-12-28T00:55:09.074Z,8.76
2017-12-28T00:56:09.557Z,8.74
2017-12-28T00:57:10.026Z,8.72
2017-12-28T00:58:10.494Z,8.71
2017-12-28T00:59:10.948Z,8.69
2017-12-28T01:00:11.431Z,8.67
2017-12-28T01:01:11.900Z,8.65
2017-12-28T01:03:12.838Z,8.63
2017-12-28T01:04:13.306Z,8.62
2017-12-28T01:05:13.783Z,8.63
2017-12-28T01:06:14.232Z,8.61
2017-12-28T01:07:14.711Z,8.58
2017-12-28T01:08:15.180Z,8.55
2017-12-28T01:09:15.649Z,8.55
2017-12-28T01:10:16.118Z,8.52
2017-12-28T01:11:16.587Z,8.51
2017-12-28T01:12:17.056Z,8.51
2017-12-28T01:13:17.525Z,8.50
2017-12-28T01:14:17.995Z,8.48
2017-12-28T01:15:18.460Z,8.47
2017-12-28T01:16:18.917Z,8.44
2017-12-28T01:17:19.400Z,8.43
2017-12-28T01:18:31.806Z,8.41
2017-12-28T01:19:20.321Z,8.40
2017-12-28T01:21:21.273Z,8.39
2017-12-28T01:22:21.740Z,8.37
2017-12-28T01:23:22.208Z,8.37
2017-12-28T01:24:22.677Z,8.36
2017-12-28T01:25:23.145Z,8.34
2017-12-28T01:26:23.602Z,8.33
2017-12-28T01:27:24.084Z,8.30
2017-12-28T01:30:25.489Z,8.29
2017-12-28T01:31:25.941Z,8.29
2017-12-28T01:33:26.894Z,8.25
2017-12-28T01:34:27.363Z,8.23
2017-12-28T01:35:27.829Z,8.21
2017-12-28T01:36:28.296Z,8.19
2017-12-28T01:37:28.766Z,8.18
2017-12-28T01:38:29.234Z,8.17
2017-12-28T01:39:29.687Z,8.14
2017-12-28T01:40:30.169Z,8.14
2017-12-28T01:41:30.638Z,8.12
2017-12-28T01:42:31.107Z,8.11
2017-12-28T01:43:31.575Z,8.09
2017-12-28T01:45:32.512Z,8.07
2017-12-28T01:46:32.965Z,8.06
2017-12-28T01:50:34.850Z,8.02
2017-12-28T01:51:35.318Z,8.01
2017-12-28T01:52:35.787Z,8.01
2017-12-28T01:53:36.241Z,8.01
2017-12-28T01:54:36.722Z,8.01
2017-12-28T01:55:37.192Z,7.99
2017-12-28T01:56:37.658Z,7.98
2017-12-28T01:57:38.128Z,7.95
2017-12-28T01:58:38.594Z,7.94
2017-12-28T01:59:39.062Z,7.93
2017-12-28T02:00:39.525Z,7.91
2017-12-28T02:01:40.001Z,7.91
2017-12-28T02:03:40.933Z,7.88
2017-12-28T02:04:41.388Z,7.90
2017-12-28T02:06:42.337Z,7.89
2017-12-28T02:07:42.804Z,7.89
2017-12-28T02:08:43.272Z,7.87
2017-12-28T02:09:43.739Z,7.87
2017-12-28T02:10:44.209Z,7.87
2017-12-28T02:11:44.662Z,7.84
2017-12-28T02:12:45.146Z,7.84
2017-12-28T02:13:45.612Z,7.82
2017-12-28T02:14:57.817Z,7.82
2017-12-28T02:15:46.546Z,7.80
2017-12-28T02:16:47.001Z,7.78
2017-12-28T02:17:47.482Z,7.79
2017-12-28T02:18:47.949Z,7.77
2017-12-28T02:19:48.468Z,7.77
2017-12-28T02:20:48.886Z,7.76
2017-12-28T02:21:49.353Z,7.75
2017-12-28T02:22:49.824Z,7.75
2017-12-28T02:23:50.275Z,7.73
2017-12-28T02:24:50.756Z,7.72
2017-12-28T02:28:52.627Z,7.72
2017-12-28T02:29:53.095Z,7.71
2017-12-28T02:30:53.547Z,7.69
2017-12-28T02:31:54.030Z,7.69
2017-12-28T02:32:54.489Z,7.69
2017-12-28T02:33:54.965Z,7.67
2017-12-28T02:34:55.430Z,7.66
2017-12-28T02:35:55.900Z,7.64
2017-12-28T02:36:56.366Z,7.64
2017-12-28T02:37:56.832Z,7.64
2017-12-28T02:38:57.303Z,7.64
2017-12-28T02:39:57.805Z,7.64
2017-12-28T02:40:58.237Z,7.64
2017-12-28T02:41:58.703Z,7.64
2017-12-28T02:42:59.170Z,7.63
2017-12-28T02:43:59.638Z,7.63
2017-12-28T02:45:00.108Z,7.62
2017-12-28T02:46:00.571Z,7.59
2017-12-28T02:47:01.028Z,7.59
2017-12-28T02:48:01.506Z,7.58
2017-12-28T02:49:01.974Z,7.57
2017-12-28T02:50:02.443Z,7.56
2017-12-28T02:51:02.909Z,7.55
2017-12-28T02:53:03.844Z,7.53
2017-12-28T02:54:04.299Z,7.53
2017-12-28T02:55:04.831Z,7.53
2017-12-28T02:56:05.246Z,7.53
2017-12-28T02:58:06.168Z,7.50
2017-12-28T02:59:06.648Z,7.51
2017-12-28T03:00:07.114Z,7.50
2017-12-28T03:01:07.581Z,7.48
2017-12-28T03:02:08.050Z,7.49
2017-12-28T03:03:08.520Z,7.48
2017-12-28T03:04:08.987Z,7.47
2017-12-28T03:05:09.437Z,7.48
2017-12-28T03:07:10.385Z,7.46
2017-12-28T03:08:10.852Z,7.47
2017-12-28T03:09:11.306Z,7.47
2017-12-28T03:10:11.788Z,7.46
2017-12-28T03:11:12.255Z,7.45
2017-12-28T03:12:12.723Z,7.43
2017-12-28T03:13:13.175Z,7.42
2017-12-28T03:16:14.590Z,7.41
2017-12-28T03:18:15.525Z,7.39
2017-12-28T03:19:15.991Z,7.39
2017-12-28T03:20:16.458Z,7.38
2017-12-28T03:21:16.926Z,7.37
2017-12-28T03:22:17.384Z,7.37
2017-12-28T03:23:17.863Z,7.37
2017-12-28T03:24:18.325Z,7.36
2017-12-28T03:25:18.799Z,7.35
2017-12-28T03:26:19.262Z,7.34
2017-12-28T03:27:19.728Z,7.33
2017-12-28T03:28:20.182Z,7.34
2017-12-28T03:29:20.649Z,7.32
2017-12-28T03:30:21.131Z,7.33
2017-12-28T03:31:21.597Z,7.32
2017-12-28T03:32:22.062Z,7.32
2017-12-28T03:33:22.531Z,7.31
2017-12-28T03:34:22.999Z,7.32
2017-12-28T03:35:23.465Z,7.31
2017-12-28T03:36:23.931Z,7.30
2017-12-28T03:37:24.435Z,7.29
2017-12-28T03:38:24.865Z,7.29
2017-12-28T03:39:25.333Z,7.29
2017-12-28T03:41:26.266Z,7.29
2017-12-28T03:42:26.719Z,7.27
2017-12-28T03:43:27.201Z,7.27
2017-12-28T03:44:27.668Z,7.27
2017-12-28T03:45:28.121Z,7.26
2017-12-28T03:46:28.602Z,7.24
2017-12-28T03:49:30.003Z,7.23
2017-12-28T03:51:30.936Z,7.21
2017-12-28T03:52:31.389Z,7.21
2017-12-28T03:53:31.869Z,7.20
2017-12-28T03:54:32.355Z,7.19
2017-12-28T03:55:32.806Z,7.17
2017-12-28T03:56:33.271Z,7.18
2017-12-28T03:57:33.737Z,7.19
2017-12-28T03:58:34.201Z,7.18
2017-12-28T03:59:34.659Z,7.17
2017-12-28T04:00:35.138Z,7.16
2017-12-28T04:01:35.605Z,7.15
2017-12-28T04:02:36.072Z,7.15
2017-12-28T04:03:36.526Z,7.15
2017-12-28T04:04:37.005Z,7.14
2017-12-28T04:05:37.472Z,7.14
2017-12-28T04:06:37.940Z,7.13
2017-12-28T04:07:38.407Z,7.12
2017-12-28T04:08:38.862Z,7.13
2017-12-28T04:09:39.340Z,7.12
2017-12-28T04:10:39.807Z,7.10
2017-12-28T04:11:40.274Z,7.11
2017-12-28T04:12:40.727Z,7.08
2017-12-28T04:13:41.206Z,7.08
2017-12-28T04:14:41.675Z,7.06
2017-12-28T04:15:42.128Z,7.05
2017-12-28T04:16:42.607Z,7.02
2017-12-28T04:17:43.076Z,7.01
2017-12-28T04:19:44.008Z,6.99
2017-12-28T04:21:44.927Z,6.98
2017-12-28T04:22:45.408Z,6.96
2017-12-28T04:23:45.876Z,6.96
2017-12-28T04:24:46.339Z,6.94
2017-12-28T04:25:46.807Z,6.93
2017-12-28T04:26:47.276Z,6.93
2017-12-28T04:27:47.741Z,6.92
2017-12-28T04:28:48.209Z,6.91
2017-12-28T04:29:48.660Z,6.90
2017-12-28T04:31:00.929Z,6.90
2017-12-28T04:31:49.594Z,6.90
2017-12-28T04:32:50.075Z,6.89
2017-12-28T04:33:50.541Z,6.89
2017-12-28T04:34:51.009Z,6.88
2017-12-28T04:35:51.511Z,6.86
2017-12-28T04:36:51.940Z,6.86
2017-12-28T04:37:52.406Z,6.85
2017-12-28T04:38:52.873Z,6.85
2017-12-28T04:39:53.346Z,6.85
2017-12-28T04:40:53.794Z,6.84
2017-12-28T04:42:54.739Z,6.81
2017-12-28T04:44:55.672Z,6.79
2017-12-28T04:45:56.127Z,6.80
2017-12-28T04:46:56.604Z,6.79
2017-12-28T04:47:57.072Z,6.79
2017-12-28T04:48:57.537Z,6.77
2017-12-28T04:49:57.992Z,6.76
2017-12-28T04:50:58.470Z,6.75
2017-12-28T04:51:58.939Z,6.76
2017-12-28T04:52:59.403Z,6.74
2017-12-28T04:53:59.871Z,6.74
2017-12-28T04:56:00.790Z,6.70
2017-12-28T04:57:01.268Z,6.70
2017-12-28T04:58:01.736Z,6.69
2017-12-28T04:59:02.200Z,6.68
2017-12-28T05:00:02.668Z,6.68
2017-12-28T05:04:04.533Z,6.65
2017-12-28T05:05:04.998Z,6.64
2017-12-28T05:06:05.450Z,6.64
2017-12-28T05:07:05.932Z,6.62
2017-12-28T05:08:06.393Z,6.62
2017-12-28T05:10:07.330Z,6.62
2017-12-28T05:12:08.262Z,6.63
2017-12-28T05:14:09.193Z,6.62
2017-12-28T05:15:09.659Z,6.63
2017-12-28T05:16:10.134Z,6.60
2017-12-28T05:17:21.962Z,6.60
2017-12-28T05:18:11.057Z,6.59
2017-12-28T05:19:11.513Z,6.59
2017-12-28T05:20:11.991Z,6.58
2017-12-28T05:21:12.458Z,6.57
2017-12-28T05:22:12.922Z,6.56
2017-12-28T05:23:13.389Z,6.56
2017-12-28T05:24:13.856Z,6.55
2017-12-28T05:25:14.321Z,6.55
2017-12-28T05:26:14.786Z,6.53
2017-12-28T05:27:15.239Z,6.52
2017-12-28T05:28:15.720Z,6.52
2017-12-28T05:30:16.650Z,6.50
2017-12-28T05:31:17.117Z,6.51
2017-12-28T05:32:17.583Z,6.50
2017-12-28T05:34:18.517Z,6.47
2017-12-28T05:35:18.981Z,6.46
2017-12-28T05:36:19.449Z,6.47
2017-12-28T05:37:19.911Z,6.46
2017-12-28T05:38:20.366Z,6.47
2017-12-28T05:39:20.845Z,6.46
2017-12-28T05:40:21.312Z,6.47
2017-12-28T05:41:21.778Z,6.46
2017-12-28T05:42:22.241Z,6.46
2017-12-28T05:43:22.710Z,6.47
2017-12-28T05:44:23.174Z,6.47
2017-12-28T05:45:23.627Z,6.46
2017-12-28T05:46:24.106Z,6.46
2017-12-28T05:47:24.575Z,6.46
2017-12-28T05:48:25.040Z,6.45
2017-12-28T05:49:25.508Z,6.45
2017-12-28T05:50:25.971Z,6.44
2017-12-28T05:51:26.438Z,6.44
2017-12-28T05:52:26.888Z,6.44
2017-12-28T05:53:27.367Z,6.44
2017-12-28T05:54:27.834Z,6.44
2017-12-28T05:55:28.301Z,6.43
2017-12-28T05:56:28.767Z,6.42
2017-12-28T05:58:29.697Z,6.40
2017-12-28T05:59:30.152Z,6.39
2017-12-28T06:00:30.628Z,6.40
2017-12-28T06:01:31.094Z,6.39
2017-12-28T06:02:31.548Z,6.39
2017-12-28T06:03:32.029Z,6.39
2017-12-28T06:04:32.494Z,6.37
2017-12-28T06:05:32.961Z,6.38
2017-12-28T06:06:33.427Z,6.38
2017-12-28T06:10:35.275Z,6.35
2017-12-28T06:11:35.755Z,6.33
2017-12-28T06:13:36.687Z,6.33
2017-12-28T06:14:37.152Z,6.33
2017-12-28T06:15:37.617Z,6.31
2017-12-28T06:16:38.285Z,6.32
2017-12-28T06:17:38.536Z,6.30
2017-12-28T06:18:39.014Z,6.30
2017-12-28T06:19:39.481Z,6.29
2017-12-28T06:20:39.946Z,6.26
2017-12-28T06:21:40.411Z,6.25
2017-12-28T06:22:40.878Z,6.24
2017-12-28T06:23:41.343Z,6.24
2017-12-28T06:24:41.796Z,6.24
2017-12-28T06:25:42.275Z,6.22
2017-12-28T06:26:42.739Z,6.22
2017-12-28T06:27:43.206Z,6.21
2017-12-28T06:28:43.659Z,6.23
2017-12-28T06:29:44.136Z,6.24
2017-12-28T06:30:44.604Z,6.22
2017-12-28T06:31:45.071Z,6.21
2017-12-28T06:32:45.534Z,6.21
2017-12-28T06:33:45.999Z,6.21
2017-12-28T06:34:46.465Z,6.20
2017-12-28T06:35:46.920Z,6.19
2017-12-28T06:36:47.396Z,6.19
2017-12-28T06:37:47.862Z,6.20
2017-12-28T06:38:48.326Z,6.20
2017-12-28T06:39:48.793Z,6.18
2017-12-28T06:40:49.260Z,6.20
2017-12-28T06:41:49.725Z,6.19
2017-12-28T06:42:50.191Z,6.19
2017-12-28T06:43:50.656Z,6.18
2017-12-28T06:44:51.121Z,6.17
2017-12-28T06:45:51.629Z,6.18
2017-12-28T06:46:52.040Z,6.17
2017-12-28T06:47:52.520Z,6.18
2017-12-28T06:48:53.038Z,6.15
2017-12-28T06:49:53.453Z,6.16
2017-12-28T06:51:54.385Z,6.14
2017-12-28T06:53:55.298Z,6.12
2017-12-28T06:54:55.780Z,6.12
2017-12-28T06:55:56.244Z,6.11
2017-12-28T06:56:56.711Z,6.12
2017-12-28T06:57:57.160Z,6.11
2017-12-28T06:58:57.642Z,6.12
2017-12-28T06:59:58.108Z,6.11
2017-12-28T07:00:58.557Z,6.11
2017-12-28T07:01:59.036Z,6.10
2017-12-28T07:02:59.503Z,6.10
2017-12-28T07:03:59.968Z,6.09
2017-12-28T07:05:00.420Z,6.08
2017-12-28T07:06:00.901Z,6.08
2017-12-28T07:07:01.367Z,6.09
2017-12-28T07:08:01.830Z,6.08
2017-12-28T07:09:02.347Z,6.08
2017-12-28T07:10:02.759Z,6.07
2017-12-28T07:11:03.225Z,6.06
2017-12-28T07:12:03.677Z,6.05
2017-12-28T07:13:04.157Z,6.05
2017-12-28T07:14:16.106Z,6.03
2017-12-28T07:15:05.086Z,6.03
2017-12-28T07:17:06.019Z,6.03
2017-12-28T07:18:06.486Z,6.02
2017-12-28T07:19:06.937Z,6.01
2017-12-28T07:20:07.415Z,5.99
2017-12-28T07:21:07.879Z,6.01
2017-12-28T07:22:08.346Z,6.00
2017-12-28T07:23:08.797Z,5.99
2017-12-28T07:24:09.276Z,6.00
2017-12-28T07:25:09.742Z,5.99
2017-12-28T07:27:10.673Z,5.98
2017-12-28T07:28:11.138Z,5.98
2017-12-28T07:29:11.603Z,5.99
2017-12-28T07:30:12.057Z,5.97
2017-12-28T07:31:12.532Z,5.98
2017-12-28T07:32:13.002Z,5.98
2017-12-28T07:33:13.464Z,5.99
2017-12-28T07:34:13.916Z,6.00
2017-12-28T07:35:14.393Z,6.00
2017-12-28T07:36:14.860Z,5.99
2017-12-28T07:37:15.326Z,5.99
2017-12-28T07:38:15.791Z,6.00
2017-12-28T07:39:16.259Z,5.99
2017-12-28T07:40:16.721Z,6.01
2017-12-28T07:41:17.176Z,6.00
2017-12-28T07:42:17.653Z,6.00
2017-12-28T07:43:18.117Z,5.99
2017-12-28T07:44:18.585Z,6.00
2017-12-28T07:45:19.047Z,5.99
2017-12-28T07:46:19.515Z,5.99
2017-12-28T07:47:19.980Z,6.00
2017-12-28T07:48:20.444Z,5.98
2017-12-28T07:49:20.910Z,5.98
2017-12-28T07:50:21.364Z,5.99
2017-12-28T07:51:21.839Z,5.98
2017-12-28T07:52:22.305Z,5.99
2017-12-28T07:53:22.773Z,5.98
2017-12-28T07:54:23.239Z,6.00
2017-12-28T07:55:23.701Z,6.01
2017-12-28T07:56:24.170Z,6.03
2017-12-28T07:57:24.637Z,6.04
2017-12-28T07:59:25.565Z,6.06
2017-12-28T08:01:26.480Z,6.08
2017-12-28T08:02:26.958Z,6.09
2017-12-28T08:03:27.424Z,6.07
2017-12-28T08:04:27.890Z,6.06
2017-12-28T08:05:28.354Z,6.06
2017-12-28T08:07:29.286Z,6.06
2017-12-28T08:08:29.740Z,6.08
2017-12-28T08:09:30.218Z,6.07
2017-12-28T08:10:30.682Z,6.08
2017-12-28T08:11:31.149Z,6.06
2017-12-28T08:12:31.599Z,6.06
2017-12-28T08:14:32.542Z,6.06
2017-12-28T08:15:33.007Z,6.06
2017-12-28T08:16:33.472Z,6.05
2017-12-28T08:17:33.939Z,6.04
2017-12-28T08:18:34.404Z,6.03
2017-12-28T08:19:34.873Z,6.01
2017-12-28T08:20:35.335Z,6.02
2017-12-28T08:21:35.788Z,6.02
2017-12-28T08:22:36.264Z,6.02
2017-12-28T08:23:36.730Z,6.01
2017-12-28T08:25:37.662Z,6.02
2017-12-28T08:28:39.047Z,6.04
2017-12-28T08:29:39.523Z,6.06
2017-12-28T08:30:39.988Z,6.05
2017-12-28T08:31:40.452Z,6.06
2017-12-28T08:32:40.906Z,6.06
2017-12-28T08:33:41.385Z,6.09
2017-12-28T08:34:41.849Z,6.11
2017-12-28T08:36:42.781Z,6.13
2017-12-28T08:37:43.247Z,6.15
2017-12-28T08:38:43.711Z,6.14
2017-12-28T08:39:44.165Z,6.14
2017-12-28T08:40:44.644Z,6.16
2017-12-28T08:41:45.108Z,6.16
2017-12-28T08:42:45.572Z,6.18
2017-12-28T08:43:46.025Z,6.19
2017-12-28T08:44:46.504Z,6.21
2017-12-28T08:47:47.901Z,6.23
2017-12-28T08:50:49.282Z,6.24
2017-12-28T08:51:49.761Z,6.23
2017-12-28T08:52:50.226Z,6.23
2017-12-28T08:53:50.694Z,6.23
2017-12-28T08:54:51.157Z,6.24
2017-12-28T08:55:51.625Z,6.25
2017-12-28T08:56:52.089Z,6.24
2017-12-28T08:57:52.540Z,6.24
2017-12-28T08:58:53.020Z,6.24
2017-12-28T08:59:53.487Z,6.24
2017-12-28T09:00:53.951Z,6.23
2017-12-28T09:01:54.415Z,6.22
2017-12-28T09:02:54.880Z,6.24
2017-12-28T09:03:55.347Z,6.25
2017-12-28T09:04:55.812Z,6.26
2017-12-28T09:06:56.730Z,6.27
2017-12-28T09:07:57.208Z,6.26
2017-12-28T09:09:58.126Z,6.29
2017-12-28T09:10:58.606Z,6.29
2017-12-28T09:11:59.070Z,6.30
2017-12-28T09:12:59.538Z,6.30
2017-12-28T09:14:00.004Z,6.31
2017-12-28T09:15:00.469Z,6.31
2017-12-28T09:16:00.933Z,6.32
2017-12-28T09:17:01.400Z,6.31
2017-12-28T09:18:01.863Z,6.31
2017-12-28T09:19:02.315Z,6.32
2017-12-28T09:20:02.794Z,6.33
2017-12-28T09:21:03.260Z,6.34
2017-12-28T09:22:03.727Z,6.35
2017-12-28T09:23:04.191Z,6.36
2017-12-28T09:25:05.123Z,6.37
2017-12-28T09:27:06.054Z,6.39
2017-12-28T09:32:08.381Z,6.45
2017-12-28T09:33:08.835Z,6.47
2017-12-28T09:34:09.313Z,6.48
2017-12-28T09:35:09.780Z,6.50
2017-12-28T09:36:10.230Z,6.51
2017-12-28T09:37:10.711Z,6.53
2017-12-28T09:38:11.175Z,6.54
2017-12-28T09:39:11.639Z,6.55
2017-12-28T09:40:12.105Z,6.56
2017-12-28T09:41:24.259Z,6.57
2017-12-28T09:42:13.038Z,6.58
2017-12-28T09:43:13.490Z,6.58
2017-12-28T09:44:13.956Z,6.59
2017-12-28T09:45:14.434Z,6.57
2017-12-28T09:46:14.902Z,6.59
2017-12-28T09:47:15.366Z,6.61
2017-12-28T09:49:16.299Z,6.65
2017-12-28T09:52:17.697Z,6.71
2017-12-28T09:53:18.149Z,6.72
2017-12-28T09:54:18.627Z,6.72
2017-12-28T09:55:19.094Z,6.73
2017-12-28T09:56:19.609Z,6.77
2017-12-28T09:57:20.025Z,6.78
2017-12-28T09:58:20.497Z,6.79
2017-12-28T09:59:20.956Z,6.81
2017-12-28T10:00:21.419Z,6.83
2017-12-28T10:01:21.890Z,6.85
2017-12-28T10:02:22.354Z,6.87
2017-12-28T10:03:22.820Z,6.89
2017-12-28T10:04:23.287Z,6.92
2017-12-28T10:06:36.194Z,6.93
2017-12-28T10:07:24.685Z,6.95
2017-12-28T10:08:25.138Z,6.94
2017-12-28T10:09:25.617Z,6.94
2017-12-28T10:10:26.083Z,6.95
2017-12-28T10:11:26.549Z,6.96
2017-12-28T10:12:27.015Z,6.97
2017-12-28T10:13:27.481Z,6.97
2017-12-28T10:14:27.947Z,6.98
2017-12-28T10:15:28.413Z,6.98
2017-12-28T10:16:28.886Z,6.98
2017-12-28T10:17:29.346Z,6.99
2017-12-28T10:19:30.265Z,6.99
2017-12-28T10:20:30.744Z,7.00
2017-12-28T10:21:31.211Z,7.00
2017-12-28T10:22:31.680Z,7.00
2017-12-28T10:23:32.129Z,7.03
2017-12-28T10:24:32.611Z,7.04
2017-12-28T10:25:33.075Z,7.06
2017-12-28T10:26:33.593Z,7.07
2017-12-28T10:27:34.010Z,7.08
2017-12-28T10:28:34.474Z,7.09
2017-12-28T10:29:34.939Z,7.11
2017-12-28T10:30:35.394Z,7.11
2017-12-28T10:31:35.872Z,7.12
2017-12-28T10:32:36.375Z,7.12
2017-12-28T10:33:36.804Z,7.13
2017-12-28T10:34:37.258Z,7.14
2017-12-28T10:35:37.737Z,7.17
2017-12-28T10:37:38.669Z,7.21
2017-12-28T10:38:39.138Z,7.22
2017-12-28T10:39:39.602Z,7.24
2017-12-28T10:40:40.069Z,7.26
2017-12-28T10:41:40.542Z,7.26
2017-12-28T10:51:04.534Z,7.43
2017-12-28T10:52:05.001Z,7.44
2017-12-28T10:53:05.470Z,7.46
2017-12-28T10:54:05.933Z,7.48
2017-12-28T10:55:06.388Z,7.49
2017-12-28T10:56:06.868Z,7.52
2017-12-28T10:57:07.335Z,7.53
2017-12-28T10:58:07.786Z,7.54
2017-12-28T11:00:08.720Z,7.58
2017-12-28T11:02:09.667Z,7.62
2017-12-28T11:03:10.134Z,7.65
2017-12-28T11:04:10.603Z,7.66
2017-12-28T11:05:11.068Z,7.67
2017-12-28T11:06:11.533Z,7.69
2017-12-28T11:07:11.987Z,7.70
2017-12-28T11:09:12.934Z,7.73
2017-12-28T11:10:13.402Z,7.74
2017-12-28T11:11:13.868Z,7.75
2017-12-28T11:12:14.337Z,7.76
2017-12-28T11:13:14.801Z,7.78
2017-12-28T11:14:15.268Z,7.81
2017-12-28T11:15:15.725Z,7.83
2017-12-28T11:17:16.671Z,7.85
2017-12-28T11:18:17.137Z,7.87
2017-12-28T11:19:17.604Z,7.88
2017-12-28T11:20:18.072Z,7.89
2017-12-28T11:21:18.538Z,7.90
2017-12-28T11:22:19.006Z,7.90
2017-12-28T11:23:19.473Z,7.90
2017-12-28T11:24:19.939Z,7.91
2017-12-28T11:25:20.409Z,7.91
2017-12-28T11:26:20.859Z,7.93
2017-12-28T11:27:21.340Z,7.92
2017-12-28T11:28:21.809Z,7.93
2017-12-28T11:29:22.274Z,7.92
2017-12-28T11:30:22.742Z,7.92
2017-12-28T11:31:23.209Z,7.94
2017-12-28T11:32:23.676Z,7.92
2017-12-28T11:33:24.130Z,7.92
2017-12-28T11:34:24.611Z,7.92
2017-12-28T11:35:37.271Z,7.91
2017-12-28T11:36:25.547Z,7.92
2017-12-28T11:37:26.014Z,7.91
2017-12-28T11:38:26.479Z,7.92
2017-12-28T11:39:26.947Z,7.93
2017-12-28T11:41:27.868Z,7.93
2017-12-28T11:42:28.348Z,7.93
2017-12-28T11:43:28.815Z,7.93
2017-12-28T11:44:29.283Z,7.94
2017-12-28T11:45:29.748Z,7.95
2017-12-28T11:46:30.215Z,7.97
2017-12-28T11:47:30.684Z,7.97
2017-12-28T11:48:31.138Z,7.97
2017-12-28T11:49:31.618Z,7.97
2017-12-28T11:50:32.084Z,7.97
2017-12-28T11:51:32.552Z,7.97
2017-12-28T11:52:33.019Z,7.99
2017-12-28T11:53:33.489Z,8.00
2017-12-28T11:54:33.953Z,8.02
2017-12-28T11:55:34.409Z,8.04
2017-12-28T11:56:34.890Z,8.06
2017-12-28T11:57:35.360Z,8.06
2017-12-28T11:58:35.824Z,8.08
2017-12-28T12:00:48.295Z,8.09
2017-12-28T12:01:37.225Z,8.10
2017-12-28T12:02:37.693Z,8.10
2017-12-28T12:03:38.160Z,8.11
2017-12-28T12:04:38.614Z,8.12
2017-12-28T12:05:39.145Z,8.13
2017-12-28T12:06:39.561Z,8.14
2017-12-28T12:07:40.016Z,8.15
2017-12-28T12:08:40.496Z,8.16
2017-12-28T12:09:40.965Z,8.18
2017-12-28T12:10:41.431Z,8.18
2017-12-28T12:11:41.899Z,8.21
2017-12-28T12:12:42.368Z,8.22
2017-12-28T12:13:42.834Z,8.23
2017-12-28T12:14:43.289Z,8.24
2017-12-28T12:15:43.768Z,8.23
2017-12-28T12:16:44.238Z,8.25
2017-12-28T12:18:45.172Z,8.25
2017-12-28T12:19:45.639Z,8.26
2017-12-28T12:20:46.107Z,8.28
2017-12-28T12:21:46.576Z,8.28
2017-12-28T12:22:47.042Z,8.28
2017-12-28T12:23:47.510Z,8.28
2017-12-28T12:24:47.977Z,8.29
2017-12-28T12:25:48.499Z,8.29
2017-12-28T12:26:48.912Z,8.30
2017-12-28T12:27:49.379Z,8.31
2017-12-28T12:28:49.848Z,8.31
2017-12-28T12:29:50.318Z,8.31
2017-12-28T12:30:50.770Z,8.32
2017-12-28T12:31:51.250Z,8.33
2017-12-28T12:32:51.725Z,8.33
2017-12-28T12:33:52.172Z,8.33
2017-12-28T12:34:52.653Z,8.34
2017-12-28T12:35:53.171Z,8.33
2017-12-28T12:36:53.616Z,8.33
2017-12-28T12:37:54.060Z,8.32
2017-12-28T12:38:54.524Z,8.32
2017-12-28T12:39:54.990Z,8.32
2017-12-28T12:40:55.511Z,8.32
2017-12-28T12:41:55.912Z,8.32
2017-12-28T12:42:56.394Z,8.32
2017-12-28T12:43:56.862Z,8.32
2017-12-28T12:44:57.331Z,8.30
2017-12-28T12:45:57.796Z,8.30
2017-12-28T12:46:58.265Z,8.30
2017-12-28T12:47:58.734Z,8.31
2017-12-28T12:48:59.206Z,8.31
2017-12-28T12:49:59.670Z,8.29
2017-12-28T12:51:00.186Z,8.30
2017-12-28T12:52:00.601Z,8.28
2017-12-28T12:53:01.072Z,8.27
2017-12-28T12:54:01.539Z,8.27
2017-12-28T12:55:01.993Z,8.27
2017-12-28T12:56:14.349Z,8.26
2017-12-28T12:57:02.948Z,8.25
2017-12-28T12:59:03.874Z,8.24
2017-12-28T13:00:04.343Z,8.24
2017-12-28T13:02:05.278Z,8.23
2017-12-28T13:03:05.748Z,8.23
2017-12-28T13:04:06.215Z,8.21
2017-12-28T13:05:06.681Z,8.21
2017-12-28T13:06:07.151Z,8.21
2017-12-28T13:07:07.617Z,8.20
2017-12-28T13:08:08.071Z,8.20
2017-12-28T13:09:08.554Z,8.19
2017-12-28T13:10:09.019Z,8.19
2017-12-28T13:11:09.486Z,8.18
2017-12-28T13:12:09.955Z,8.18
2017-12-28T13:13:10.422Z,8.18
2017-12-28T13:15:11.356Z,8.18
2017-12-28T13:16:11.878Z,8.18
2017-12-28T13:17:12.280Z,8.16
2017-12-28T13:18:12.760Z,8.16
2017-12-28T13:19:13.227Z,8.16
2017-12-28T13:21:14.150Z,8.16
2017-12-28T13:22:14.628Z,8.15
2017-12-28T13:24:15.564Z,8.14
2017-12-28T13:26:28.325Z,8.12
2017-12-28T13:27:16.966Z,8.11
2017-12-28T13:28:17.435Z,8.10
2017-12-28T13:29:17.901Z,8.11
2017-12-28T13:30:18.370Z,8.10
2017-12-28T13:31:18.836Z,8.11
2017-12-28T13:32:19.292Z,8.11
2017-12-28T13:33:19.773Z,8.13
2017-12-28T13:34:20.240Z,8.12
2017-12-28T13:35:20.706Z,8.13
2017-12-28T13:36:33.367Z,8.13
2017-12-28T13:38:22.096Z,8.14
2017-12-28T13:39:22.576Z,8.14
2017-12-28T13:40:23.045Z,8.14
2017-12-28T13:41:23.563Z,8.16
2017-12-28T13:43:24.449Z,8.16
2017-12-28T13:44:24.915Z,8.15
2017-12-28T13:45:25.384Z,8.14
2017-12-28T13:47:26.318Z,8.13
2017-12-28T13:48:26.785Z,8.13
2017-12-28T13:49:27.239Z,8.13
2017-12-28T13:50:27.725Z,8.12
2017-12-28T13:51:28.189Z,8.11
2017-12-28T13:52:28.655Z,8.10
2017-12-28T13:53:29.111Z,8.10
2017-12-28T13:54:29.592Z,8.10
2017-12-28T13:55:30.060Z,8.12
2017-12-28T13:56:30.525Z,8.12
2017-12-28T13:57:30.993Z,8.10
2017-12-28T13:58:31.462Z,8.11
2017-12-28T13:59:31.917Z,8.11
2017-12-28T14:00:32.394Z,8.10
2017-12-28T14:01:32.893Z,8.11
2017-12-28T14:02:33.330Z,8.10
2017-12-28T14:03:33.798Z,8.09
2017-12-28T14:04:34.267Z,8.08
2017-12-28T14:05:34.736Z,8.08
2017-12-28T14:07:35.669Z,8.06
2017-12-28T14:08:36.123Z,8.06
2017-12-28T14:09:36.604Z,8.06
2017-12-28T14:10:37.077Z,8.05
2017-12-28T14:11:37.539Z,8.03
2017-12-28T14:12:38.007Z,8.01
2017-12-28T14:13:38.476Z,8.02
2017-12-28T14:14:38.942Z,8.01
2017-12-28T14:15:39.408Z,8.02
2017-12-28T14:16:39.927Z,8.00
2017-12-28T14:18:40.811Z,7.98
2017-12-28T14:19:41.264Z,7.97
2017-12-28T14:20:41.747Z,7.96
2017-12-28T14:21:42.213Z,7.96
2017-12-28T14:22:42.681Z,7.96
2017-12-28T14:23:43.150Z,7.95
2017-12-28T14:24:43.615Z,7.93
2017-12-28T14:25:44.083Z,7.94
2017-12-28T14:26:44.753Z,7.94
2017-12-28T14:27:45.018Z,7.93
2017-12-28T14:28:45.488Z,7.92
2017-12-28T14:29:45.953Z,7.90
2017-12-28T14:30:46.408Z,7.90
2017-12-28T14:32:47.355Z,7.90
2017-12-28T14:33:47.822Z,7.90
2017-12-28T14:34:48.290Z,7.89
2017-12-28T14:35:48.743Z,7.89
2017-12-28T14:37:01.405Z,7.88
2017-12-28T14:37:49.691Z,7.88
2017-12-28T14:39:50.625Z,7.88
2017-12-28T14:41:51.561Z,7.87
2017-12-28T14:42:52.014Z,7.86
2017-12-28T14:43:52.495Z,7.86
2017-12-28T14:44:52.961Z,7.85
2017-12-28T14:45:53.430Z,7.83
2017-12-28T14:46:53.899Z,7.83
2017-12-28T14:47:54.370Z,7.82
2017-12-28T14:48:54.833Z,7.83
2017-12-28T14:49:55.293Z,7.83
2017-12-28T14:50:55.766Z,7.84
2017-12-28T14:51:56.234Z,7.82
2017-12-28T14:52:56.704Z,7.81
2017-12-28T14:53:57.168Z,7.82
2017-12-28T14:54:57.622Z,7.81
2017-12-28T14:55:58.101Z,7.82
2017-12-28T14:56:58.569Z,7.82
2017-12-28T14:57:59.036Z,7.82
2017-12-28T14:59:59.972Z,7.81
2017-12-28T15:01:00.440Z,7.80
2017-12-28T15:02:00.910Z,7.79
2017-12-28T15:03:01.373Z,7.80
2017-12-28T15:05:02.307Z,7.77
2017-12-28T15:06:02.762Z,7.78
2017-12-28T15:07:03.242Z,7.75
2017-12-28T15:08:03.709Z,7.75
2017-12-28T15:09:04.176Z,7.74
2017-12-28T15:10:04.643Z,7.72
2017-12-28T15:11:05.112Z,7.72
2017-12-28T15:12:05.568Z,7.73
2017-12-28T15:13:06.047Z,7.73
2017-12-28T15:14:06.512Z,7.72
2017-12-28T15:15:06.978Z,7.72
2017-12-28T15:17:19.500Z,7.69